^^
Grace C. Lehan Memorial Weather Station Historical Data
Daily Summary for September 27, 2022 Units:  Both    English   Metric
Daily Weekly Monthly Yearly
  High: Low: Average:
Temperature: 70.9 °F /  21.6 °C 54.7 °F /  12.6 °C 61.4 °F /  16.3 °C
Dew Point: 62.3 °F /  16.8 °C 51 °F /  10.6 °C 55 °F /  12.8 °C
Humidity: 97% 54% 82%
Wind Speed: 2.2mph /  3.5km/h - 0.2mph /  0.3km/h
Wind Gust: 14mph /  22.5km/h - -
Wind- - WSW
Pressure: 29.85 in /  1010.7 hPa 29.73 in /  1006.7 hPa -
Precipitation: 0.01 in /  0.25 mm    
 
 
Tabular Data for September 27, 2022
Time Temperature Dew Point Pressure Wind Wind Speed Wind Gust Humidity Rainfall Rate (Hourly) solar
00:04 57.4 °F /  14.1 °C 55.9 °F /  13.3 °C 29.75in /  1007.3hPa Calm     94.9% 0.00in /  0mm 0 W/m2
00:09 57.3 °F /  14.1 °C 55.9 °F /  13.3 °C 29.75in /  1007.3hPa Calm     95% 0.00in /  0mm 0 W/m2
00:14 57.2 °F /  14 °C 55.8 °F /  13.2 °C 29.75in /  1007.3hPa Calm     95% 0.00in /  0mm 0 W/m2
00:19 57.2 °F /  14 °C 55.8 °F /  13.2 °C 29.75in /  1007.3hPa Calm     95% 0.00in /  0mm 0 W/m2
00:24 57.1 °F /  13.9 °C 55.7 °F /  13.2 °C 29.75in /  1007.3hPa Calm     95% 0.01in /  0.25mm 0 W/m2
00:29 57.1 °F /  13.9 °C 55.7 °F /  13.2 °C 29.75in /  1007.3hPa Calm     95% 0.01in /  0.25mm 0 W/m2
00:34 56.9 °F /  13.8 °C 55.5 °F /  13.1 °C 29.75in /  1007.3hPa Calm     95% 0.01in /  0.25mm 0 W/m2
00:39 56.9 °F /  13.8 °C 55.5 °F /  13.1 °C 29.75in /  1007.3hPa Calm     95% 0.01in /  0.25mm 0 W/m2
00:44 57 °F /  13.9 °C 55.6 °F /  13.1 °C 29.75in /  1007.3hPa Calm     95% 0.01in /  0.25mm 0 W/m2
00:49 57.1 °F /  13.9 °C 55.7 °F /  13.2 °C 29.75in /  1007.3hPa Calm     95% 0.01in /  0.25mm 0 W/m2
00:54 57.2 °F /  14 °C 55.8 °F /  13.2 °C 29.75in /  1007.3hPa Calm     95.2% 0.01in /  0.25mm 0 W/m2
00:59 57.2 °F /  14 °C 55.8 °F /  13.2 °C 29.76in /  1007.7hPa Calm     95% 0.01in /  0.25mm 0 W/m2
01:04 57.2 °F /  14 °C 55.8 °F /  13.2 °C 29.75in /  1007.3hPa Calm     95% 0.01in /  0.25mm 0 W/m2
01:09 57.2 °F /  14 °C 55.8 °F /  13.2 °C 29.75in /  1007.3hPa Calm     95% 0.00in /  0mm 0 W/m2
01:14 57.1 °F /  13.9 °C 55.7 °F /  13.2 °C 29.75in /  1007.3hPa Calm     95% 0.00in /  0mm 0 W/m2
01:19 57 °F /  13.9 °C 55.6 °F /  13.1 °C 29.75in /  1007.3hPa Calm     95% 0.00in /  0mm 0 W/m2
01:24 56.9 °F /  13.8 °C 55.5 °F /  13.1 °C 29.75in /  1007.3hPa Calm     95% 0.00in /  0mm 0 W/m2
01:29 56.9 °F /  13.8 °C 55.5 °F /  13.1 °C 29.75in /  1007.3hPa Calm     95% 0.00in /  0mm 0 W/m2
01:34 56.9 °F /  13.8 °C 55.5 °F /  13.1 °C 29.75in /  1007.3hPa Calm     95% 0.00in /  0mm 0 W/m2
01:39 56.9 °F /  13.8 °C 55.5 °F /  13.1 °C 29.75in /  1007.3hPa Calm     95% 0.00in /  0mm 0 W/m2
01:44 56.9 °F /  13.8 °C 55.5 °F /  13.1 °C 29.75in /  1007.3hPa Calm     95% 0.00in /  0mm 0 W/m2
01:49 57 °F /  13.9 °C 55.8 °F /  13.2 °C 29.75in /  1007.3hPa Calm     95.6% 0.00in /  0mm 0 W/m2
01:54 57 °F /  13.9 °C 55.9 °F /  13.3 °C 29.75in /  1007.3hPa Calm     96% 0.00in /  0mm 0 W/m2
01:59 57.1 °F /  13.9 °C 55.9 °F /  13.3 °C 29.75in /  1007.3hPa Calm     96% 0.00in /  0mm 0 W/m2
02:04 57.1 °F /  13.9 °C 56 °F /  13.3 °C 29.75in /  1007.3hPa Calm     96% 0.00in /  0mm 0 W/m2
02:09 57.1 °F /  13.9 °C 56 °F /  13.3 °C 29.75in /  1007.3hPa Calm     96% 0.00in /  0mm 0 W/m2
02:14 57.1 °F /  13.9 °C 56 °F /  13.3 °C 29.74in /  1007hPa Calm     96% 0.00in /  0mm 0 W/m2
02:19 57.1 °F /  13.9 °C 56 °F /  13.3 °C 29.74in /  1007hPa Calm     96% 0.00in /  0mm 0 W/m2
02:24 57.1 °F /  13.9 °C 56 °F /  13.3 °C 29.75in /  1007.3hPa Calm     96% 0.00in /  0mm 0 W/m2
02:29 57 °F /  13.9 °C 55.9 °F /  13.3 °C 29.74in /  1007hPa Calm     96% 0.00in /  0mm 0 W/m2
02:34 57 °F /  13.9 °C 55.8 °F /  13.2 °C 29.75in /  1007.3hPa Calm     96% 0.00in /  0mm 0 W/m2
02:39 56.9 °F /  13.8 °C 55.8 °F /  13.2 °C 29.75in /  1007.3hPa Calm     96% 0.00in /  0mm 0 W/m2
02:44 56.9 °F /  13.8 °C 55.8 °F /  13.2 °C 29.75in /  1007.3hPa Calm     96% 0.00in /  0mm 0 W/m2
02:49 56.9 °F /  13.8 °C 55.7 °F /  13.2 °C 29.75in /  1007.3hPa Calm     96% 0.00in /  0mm 0 W/m2
02:54 56.8 °F /  13.8 °C 55.7 °F /  13.2 °C 29.75in /  1007.3hPa Calm     96% 0.00in /  0mm 0 W/m2
02:59 56.8 °F /  13.8 °C 55.7 °F /  13.2 °C 29.75in /  1007.3hPa Calm     96% 0.00in /  0mm 0 W/m2
03:04 56.8 °F /  13.8 °C 55.7 °F /  13.2 °C 29.75in /  1007.3hPa Calm     96% 0.00in /  0mm 0 W/m2
03:09 56.8 °F /  13.8 °C 55.7 °F /  13.2 °C 29.75in /  1007.3hPa Calm     96% 0.00in /  0mm 0 W/m2
03:14 56.8 °F /  13.8 °C 55.7 °F /  13.2 °C 29.75in /  1007.3hPa Calm     96% 0.00in /  0mm 0 W/m2
03:19 56.9 °F /  13.8 °C 55.7 °F /  13.2 °C 29.75in /  1007.3hPa Calm     96% 0.00in /  0mm 0 W/m2
03:24 56.8 °F /  13.8 °C 55.7 °F /  13.2 °C 29.74in /  1007hPa Calm     96% 0.00in /  0mm 0 W/m2
03:29 56.8 °F /  13.8 °C 55.7 °F /  13.2 °C 29.74in /  1007hPa Calm     96% 0.00in /  0mm 0 W/m2
03:34 56.8 °F /  13.8 °C 55.7 °F /  13.2 °C 29.74in /  1007hPa Calm     96% 0.00in /  0mm 0 W/m2
03:39 56.8 °F /  13.8 °C 55.7 °F /  13.2 °C 29.74in /  1007hPa Calm     96% 0.00in /  0mm 0 W/m2
03:44 56.7 °F /  13.7 °C 55.6 °F /  13.1 °C 29.74in /  1007hPa Calm     96% 0.00in /  0mm 0 W/m2
03:49 56.7 °F /  13.7 °C 55.6 °F /  13.1 °C 29.74in /  1007hPa Calm     96% 0.00in /  0mm 0 W/m2
03:54 56.6 °F /  13.7 °C 55.5 °F /  13.1 °C 29.74in /  1007hPa Calm     96% 0.00in /  0mm 0 W/m2
03:59 56.6 °F /  13.7 °C 55.4 °F /  13 °C 29.73in /  1006.7hPa Calm     96% 0.00in /  0mm 0 W/m2
04:04 56.4 °F /  13.6 °C 55.3 °F /  12.9 °C 29.73in /  1006.7hPa Calm     96% 0.00in /  0mm 0 W/m2
04:09 56.4 °F /  13.6 °C 55.3 °F /  12.9 °C 29.73in /  1006.7hPa Calm     96% 0.00in /  0mm 0 W/m2
04:14 56.3 °F /  13.5 °C 55.2 °F /  12.9 °C 29.74in /  1007hPa Calm     96% 0.00in /  0mm 0 W/m2
04:19 56.2 °F /  13.4 °C 55.1 °F /  12.8 °C 29.74in /  1007hPa Calm     96% 0.00in /  0mm 0 W/m2
04:24 56.1 °F /  13.4 °C 55 °F /  12.8 °C 29.74in /  1007hPa Calm     96% 0.00in /  0mm 0 W/m2
04:29 56.1 °F /  13.4 °C 54.9 °F /  12.7 °C 29.74in /  1007hPa Calm     96% 0.00in /  0mm 0 W/m2
04:34 56 °F /  13.3 °C 54.9 °F /  12.7 °C 29.74in /  1007hPa Calm     96% 0.00in /  0mm 0 W/m2
04:39 56 °F /  13.3 °C 54.9 °F /  12.7 °C 29.74in /  1007hPa Calm     96% 0.00in /  0mm 0 W/m2
04:44 55.9 °F /  13.3 °C 54.8 °F /  12.7 °C 29.74in /  1007hPa Calm     96% 0.00in /  0mm 0 W/m2
04:49 55.9 °F /  13.3 °C 54.8 °F /  12.7 °C 29.74in /  1007hPa Calm     96% 0.00in /  0mm 0 W/m2
04:54 56 °F /  13.3 °C 54.9 °F /  12.7 °C 29.75in /  1007.3hPa Calm     96% 0.00in /  0mm 0 W/m2
04:59 56 °F /  13.3 °C 54.9 °F /  12.7 °C 29.75in /  1007.3hPa Calm     96% 0.00in /  0mm 0 W/m2
05:04 56 °F /  13.3 °C 54.9 °F /  12.7 °C 29.75in /  1007.3hPa Calm     96% 0.00in /  0mm 0 W/m2
05:09 56 °F /  13.3 °C 54.8 °F /  12.7 °C 29.75in /  1007.3hPa Calm     96% 0.00in /  0mm 0 W/m2
05:14 55.9 °F /  13.3 °C 54.7 °F /  12.6 °C 29.75in /  1007.3hPa Calm     96% 0.00in /  0mm 0 W/m2
05:19 55.8 °F /  13.2 °C 54.6 °F /  12.6 °C 29.75in /  1007.3hPa Calm     96% 0.00in /  0mm 0 W/m2
05:24 55.7 °F /  13.2 °C 54.6 °F /  12.6 °C 29.75in /  1007.3hPa Calm     96% 0.00in /  0mm 0 W/m2
05:29 55.7 °F /  13.2 °C 54.6 °F /  12.6 °C 29.75in /  1007.3hPa Calm     96% 0.00in /  0mm 0 W/m2
05:34 55.7 °F /  13.2 °C 54.6 °F /  12.6 °C 29.75in /  1007.3hPa Calm     96% 0.00in /  0mm 0 W/m2
05:39 55.7 °F /  13.2 °C 54.6 °F /  12.6 °C 29.75in /  1007.3hPa Calm     96% 0.00in /  0mm 0 W/m2
05:44 55.6 °F /  13.1 °C 54.5 °F /  12.5 °C 29.75in /  1007.3hPa Calm     96% 0.00in /  0mm 0 W/m2
05:49 55.6 °F /  13.1 °C 54.4 °F /  12.4 °C 29.75in /  1007.3hPa Calm     96% 0.00in /  0mm 0 W/m2
05:54 55.5 °F /  13.1 °C 54.4 °F /  12.4 °C 29.75in /  1007.3hPa Calm     96% 0.00in /  0mm 0 W/m2
05:59 55.4 °F /  13 °C 54.3 °F /  12.4 °C 29.75in /  1007.3hPa Calm     96% 0.00in /  0mm 0 W/m2
06:04 55.3 °F /  12.9 °C 54.2 °F /  12.3 °C 29.75in /  1007.3hPa Calm     96% 0.00in /  0mm 0 W/m2
06:09 55.2 °F /  12.9 °C 54.1 °F /  12.3 °C 29.75in /  1007.3hPa Calm     96% 0.00in /  0mm 0 W/m2
06:14 55.1 °F /  12.8 °C 54 °F /  12.2 °C 29.75in /  1007.3hPa Calm     96% 0.00in /  0mm 0 W/m2
06:19 55 °F /  12.8 °C 53.9 °F /  12.2 °C 29.75in /  1007.3hPa Calm     96% 0.00in /  0mm 0 W/m2
06:24 55 °F /  12.8 °C 53.8 °F /  12.1 °C 29.75in /  1007.3hPa Calm     96% 0.00in /  0mm 0 W/m2
06:29 54.9 °F /  12.7 °C 53.8 °F /  12.1 °C 29.75in /  1007.3hPa Calm     96% 0.00in /  0mm 0 W/m2
06:34 54.8 °F /  12.7 °C 53.7 °F /  12.1 °C 29.75in /  1007.3hPa Calm     96% 0.00in /  0mm 0 W/m2
06:39 54.8 °F /  12.7 °C 53.7 °F /  12.1 °C 29.75in /  1007.3hPa Calm     96% 0.00in /  0mm 0 W/m2
06:44 54.7 °F /  12.6 °C 53.6 °F /  12 °C 29.75in /  1007.3hPa Calm     96% 0.00in /  0mm 0 W/m2
06:49 54.7 °F /  12.6 °C 53.6 °F /  12 °C 29.75in /  1007.3hPa Calm     96% 0.00in /  0mm 0 W/m2
06:54 54.7 °F /  12.6 °C 53.6 °F /  12 °C 29.75in /  1007.3hPa Calm     96% 0.00in /  0mm 5 W/m2
06:59 54.8 °F /  12.7 °C 53.6 °F /  12 °C 29.75in /  1007.3hPa Calm     96% 0.00in /  0mm 7 W/m2
07:04 54.8 °F /  12.7 °C 53.7 °F /  12.1 °C 29.75in /  1007.3hPa Calm     96% 0.00in /  0mm 11 W/m2
07:09 54.8 °F /  12.7 °C 53.7 °F /  12.1 °C 29.76in /  1007.7hPa Calm     96% 0.00in /  0mm 12 W/m2
07:14 54.8 °F /  12.7 °C 53.7 °F /  12.1 °C 29.76in /  1007.7hPa Calm     96% 0.00in /  0mm 16 W/m2
07:19 54.9 °F /  12.7 °C 53.7 °F /  12.1 °C 29.76in /  1007.7hPa Calm     96% 0.00in /  0mm 18 W/m2
07:24 54.9 °F /  12.7 °C 53.8 °F /  12.1 °C 29.76in /  1007.7hPa Calm     96% 0.00in /  0mm 21 W/m2
07:29 54.9 °F /  12.7 °C 53.8 °F /  12.1 °C 29.76in /  1007.7hPa Calm     96% 0.00in /  0mm 23 W/m2
07:34 55 °F /  12.8 °C 53.9 °F /  12.2 °C 29.76in /  1007.7hPa Calm     96% 0.00in /  0mm 30 W/m2
07:39 55 °F /  12.8 °C 53.9 °F /  12.2 °C 29.76in /  1007.7hPa Calm     96% 0.00in /  0mm 33 W/m2
07:44 55.1 °F /  12.8 °C 54 °F /  12.2 °C 29.76in /  1007.7hPa Calm     96% 0.00in /  0mm 40 W/m2
07:49 55.3 °F /  12.9 °C 54.1 °F /  12.3 °C 29.76in /  1007.7hPa Calm     96% 0.00in /  0mm 47 W/m2
07:54 55.4 °F /  13 °C 54.3 °F /  12.4 °C 29.76in /  1007.7hPa Calm     96% 0.00in /  0mm 62 W/m2
07:59 55.5 °F /  13.1 °C 54.4 °F /  12.4 °C 29.77in /  1008hPa Calm     96.1% 0.00in /  0mm 83 W/m2
08:09 55.9 °F /  13.3 °C 54.9 °F /  12.7 °C 29.77in /  1008hPa Calm     96.6% 0.00in /  0mm 91 W/m2
08:14 56.1 °F /  13.4 °C 55.2 °F /  12.9 °C 29.77in /  1008hPa Calm     97% 0.00in /  0mm 93 W/m2
08:19 56.3 °F /  13.5 °C 55.4 °F /  13 °C 29.77in /  1008hPa Calm     97% 0.00in /  0mm 97 W/m2
08:24 56.5 °F /  13.6 °C 55.7 °F /  13.2 °C 29.77in /  1008hPa Calm     97% 0.00in /  0mm 97 W/m2
08:29 56.7 °F /  13.7 °C 55.9 °F /  13.3 °C 29.77in /  1008hPa Calm     97% 0.00in /  0mm 72 W/m2
08:34 56.9 °F /  13.8 °C 56.1 °F /  13.4 °C 29.77in /  1008hPa Calm     97% 0.00in /  0mm 72 W/m2
08:39 57.1 °F /  13.9 °C 56.2 °F /  13.4 °C 29.77in /  1008hPa Calm     97% 0.00in /  0mm 76 W/m2
08:44 57.2 °F /  14 °C 56.3 °F /  13.5 °C 29.77in /  1008hPa Calm     97% 0.00in /  0mm 72 W/m2
08:49 57.2 °F /  14 °C 56.4 °F /  13.6 °C 29.78in /  1008.4hPa Calm     97% 0.00in /  0mm 98 W/m2
08:54 57.2 °F /  14 °C 56.4 °F /  13.6 °C 29.78in /  1008.4hPa Calm     97% 0.00in /  0mm 125 W/m2
08:59 57.4 °F /  14.1 °C 56.5 °F /  13.6 °C 29.78in /  1008.4hPa Calm     97% 0.00in /  0mm 392 W/m2
09:04 57.7 °F /  14.3 °C 56.9 °F /  13.8 °C 29.78in /  1008.4hPa Calm     97% 0.00in /  0mm 399 W/m2
09:09 58.4 °F /  14.7 °C 57.6 °F /  14.2 °C 29.78in /  1008.4hPa Calm     97% 0.00in /  0mm 457 W/m2
09:14 59.1 °F /  15.1 °C 58.3 °F /  14.6 °C 29.78in /  1008.4hPa Calm     97% 0.00in /  0mm 489 W/m2
09:19 59.8 °F /  15.4 °C 58.9 °F /  14.9 °C 29.78in /  1008.4hPa Calm     97% 0.00in /  0mm 489 W/m2
09:24 60.6 °F /  15.9 °C 59.7 °F /  15.4 °C 29.78in /  1008.4hPa Calm     97% 0.00in /  0mm 490 W/m2
09:29 61.4 °F /  16.3 °C 60.5 °F /  15.8 °C 29.79in /  1008.7hPa Calm     97% 0.00in /  0mm 501 W/m2
09:34 62.2 °F /  16.8 °C 61.3 °F /  16.3 °C 29.79in /  1008.7hPa Calm     97% 0.00in /  0mm 533 W/m2
09:39 62.8 °F /  17.1 °C 61.8 °F /  16.6 °C 29.79in /  1008.7hPa Calm     96.4% 0.00in /  0mm 540 W/m2
09:44 64 °F /  17.8 °C 62.3 °F /  16.8 °C 29.79in /  1008.7hPa WNW 0.1mph /  0.2km/h 1mph /  1.6km/h 94.2% 0.00in /  0mm 545 W/m2
09:49 64.9 °F /  18.3 °C 61.6 °F /  16.4 °C 29.79in /  1008.7hPa Calm   1mph /  1.6km/h 89.1% 0.00in /  0mm 554 W/m2
09:54 65.6 °F /  18.7 °C 60.2 °F /  15.7 °C 29.79in /  1008.7hPa Calm   1mph /  1.6km/h 82.8% 0.00in /  0mm 564 W/m2
09:59 66.3 °F /  19.1 °C 59.5 °F /  15.3 °C 29.79in /  1008.7hPa WNW 0.2mph /  0.3km/h 4mph /  6.4km/h 78.9% 0.00in /  0mm 578 W/m2
10:04 67 °F /  19.4 °C 59.3 °F /  15.2 °C 29.79in /  1008.7hPa WNW 0.1mph /  0.2km/h 4mph /  6.4km/h 76.5% 0.00in /  0mm 591 W/m2
10:09 67.6 °F /  19.8 °C 59.1 °F /  15.1 °C 29.79in /  1008.7hPa WNW 0.1mph /  0.2km/h 3mph /  4.8km/h 74.1% 0.00in /  0mm 599 W/m2
10:14 68.2 °F /  20.1 °C 58.6 °F /  14.8 °C 29.79in /  1008.7hPa West 0.2mph /  0.3km/h 3mph /  4.8km/h 71.3% 0.00in /  0mm 612 W/m2
10:19 68.9 °F /  20.5 °C 59.4 °F /  15.2 °C 29.79in /  1008.7hPa Calm   3mph /  4.8km/h 71.8% 0.00in /  0mm 619 W/m2
10:24 69.4 °F /  20.8 °C 59.4 °F /  15.2 °C 29.79in /  1008.7hPa Calm   3mph /  4.8km/h 70.6% 0.00in /  0mm 631 W/m2
10:25 69.7 °F /  20.9 °C 59.1 °F /  15.1 °C 29.79in /  1008.7hPa Calm   3mph /  4.8km/h 69% 0.00in /  0mm 635 W/m2
10:30 70.1 °F /  21.2 °C 58.2 °F /  14.6 °C 29.79in /  1008.7hPa Calm   7mph /  11.3km/h 66% 0.00in /  0mm 611 W/m2
11:00 70.8 °F /  21.6 °C 57.2 °F /  14 °C 29.79in /  1008.7hPa Calm   9mph /  14.5km/h 62% 0.00in /  0mm 673 W/m2
11:30 70.6 °F /  21.4 °C 54.6 °F /  12.6 °C 29.78in /  1008.4hPa Calm   6mph /  9.7km/h 57% 0.00in /  0mm 647 W/m2
12:04 70.6 °F /  21.4 °C 57.1 °F /  13.9 °C 29.78in /  1008.4hPa WSW 0.4mph /  0.6km/h 2mph /  3.2km/h 62.3% 0.00in /  0mm 207 W/m2
12:09 70.7 °F /  21.5 °C 56.5 °F /  13.6 °C 29.78in /  1008.4hPa SW 0.5mph /  0.8km/h 4mph /  6.4km/h 60.8% 0.00in /  0mm 125 W/m2
12:14 70.8 °F /  21.6 °C 56.5 °F /  13.6 °C 29.78in /  1008.4hPa WSW 1.2mph /  1.9km/h 10mph /  16.1km/h 60.6% 0.00in /  0mm 320 W/m2
12:19 70.7 °F /  21.5 °C 55.2 °F /  12.9 °C 29.78in /  1008.4hPa SW 1.5mph /  2.4km/h 11mph /  17.7km/h 58% 0.00in /  0mm 320 W/m2
12:24 70.6 °F /  21.4 °C 55 °F /  12.8 °C 29.78in /  1008.4hPa SW 0.3mph /  0.5km/h 11mph /  17.7km/h 57.7% 0.00in /  0mm 461 W/m2
12:29 70.6 °F /  21.4 °C 55.7 °F /  13.2 °C 29.78in /  1008.4hPa SW 0.1mph /  0.2km/h 11mph /  17.7km/h 59.1% 0.00in /  0mm 346 W/m2
12:34 70.8 °F /  21.6 °C 55.3 °F /  12.9 °C 29.78in /  1008.4hPa WSW 0.4mph /  0.6km/h 11mph /  17.7km/h 58.2% 0.00in /  0mm 476 W/m2
12:39 70.9 °F /  21.6 °C 55.3 °F /  12.9 °C 29.78in /  1008.4hPa WSW 0.5mph /  0.8km/h 7mph /  11.3km/h 58% 0.00in /  0mm 381 W/m2
12:44 70.8 °F /  21.6 °C 55.8 °F /  13.2 °C 29.78in /  1008.4hPa WSW 0.5mph /  0.8km/h 9mph /  14.5km/h 59% 0.00in /  0mm 69 W/m2
12:49 70.8 °F /  21.6 °C 55.9 °F /  13.3 °C 29.78in /  1008.4hPa WSW 0.1mph /  0.2km/h 9mph /  14.5km/h 59.2% 0.00in /  0mm 79 W/m2
12:54 70.8 °F /  21.6 °C 55.2 °F /  12.9 °C 29.78in /  1008.4hPa SW 0.5mph /  0.8km/h 9mph /  14.5km/h 57.8% 0.00in /  0mm 207 W/m2
12:59 70.8 °F /  21.6 °C 55.5 °F /  13.1 °C 29.78in /  1008.4hPa WSW 0.9mph /  1.4km/h 9mph /  14.5km/h 58.4% 0.00in /  0mm 207 W/m2
13:04 70.8 °F /  21.6 °C 55.3 °F /  12.9 °C 29.78in /  1008.4hPa WSW 0.6mph /  1km/h 9mph /  14.5km/h 57.9% 0.00in /  0mm 352 W/m2
13:09 70.8 °F /  21.6 °C 55.1 °F /  12.8 °C 29.78in /  1008.4hPa WSW 0.6mph /  1km/h 5mph /  8km/h 57.6% 0.00in /  0mm 165 W/m2
13:14 70.8 °F /  21.6 °C 55.4 °F /  13 °C 29.78in /  1008.4hPa WSW 0.3mph /  0.5km/h 5mph /  8km/h 58.3% 0.00in /  0mm 142 W/m2
13:19 70.6 °F /  21.4 °C 55.1 °F /  12.8 °C 29.78in /  1008.4hPa WSW 0.3mph /  0.5km/h 5mph /  8km/h 57.9% 0.00in /  0mm 153 W/m2
13:24 70.3 °F /  21.3 °C 55.4 °F /  13 °C 29.78in /  1008.4hPa WSW 0.2mph /  0.3km/h 5mph /  8km/h 59.1% 0.00in /  0mm 489 W/m2
13:29 70.3 °F /  21.3 °C 55.6 °F /  13.1 °C 29.77in /  1008hPa WSW 0.8mph /  1.3km/h 6mph /  9.7km/h 59.5% 0.00in /  0mm 181 W/m2
13:34 70.4 °F /  21.3 °C 54.8 °F /  12.7 °C 29.77in /  1008hPa WSW 0.5mph /  0.8km/h 6mph /  9.7km/h 57.8% 0.00in /  0mm 294 W/m2
13:39 70.4 °F /  21.3 °C 54.6 °F /  12.6 °C 29.77in /  1008hPa WSW 0.3mph /  0.5km/h 5mph /  8km/h 57.1% 0.00in /  0mm 411 W/m2
13:44 70.6 °F /  21.4 °C 54.9 °F /  12.7 °C 29.77in /  1008hPa WSW 0.7mph /  1.1km/h 9mph /  14.5km/h 57.6% 0.00in /  0mm 276 W/m2
13:49 70.6 °F /  21.4 °C 54.5 °F /  12.5 °C 29.77in /  1008hPa WSW 0.8mph /  1.3km/h 12mph /  19.3km/h 56.6% 0.00in /  0mm 128 W/m2
13:54 70.7 °F /  21.5 °C 54.5 °F /  12.5 °C 29.77in /  1008hPa WSW 1mph /  1.6km/h 12mph /  19.3km/h 56.6% 0.00in /  0mm 142 W/m2
13:59 70.8 °F /  21.6 °C 54 °F /  12.2 °C 29.77in /  1008hPa WSW 1mph /  1.6km/h 12mph /  19.3km/h 55.4% 0.00in /  0mm 116 W/m2
14:04 70.7 °F /  21.5 °C 54 °F /  12.2 °C 29.77in /  1008hPa WSW 0.7mph /  1.1km/h 12mph /  19.3km/h 55.5% 0.00in /  0mm 70 W/m2
14:09 70.5 °F /  21.4 °C 54.3 °F /  12.4 °C 29.77in /  1008hPa SW 0.8mph /  1.3km/h 11mph /  17.7km/h 56.5% 0.00in /  0mm 81 W/m2
14:14 70.4 °F /  21.3 °C 53.4 °F /  11.9 °C 29.77in /  1008hPa SW 0.9mph /  1.4km/h 11mph /  17.7km/h 54.8% 0.00in /  0mm 102 W/m2
14:17 70.5 °F /  21.4 °C 53.8 °F /  12.1 °C 29.77in /  1008hPa WSW 0.4mph /  0.6km/h 11mph /  17.7km/h 55.6% 0.00in /  0mm 111 W/m2
14:30 70.4 °F /  21.3 °C 53 °F /  11.7 °C 29.77in /  1008hPa SW 1mph /  1.6km/h 11mph /  17.7km/h 54% 0.00in /  0mm 106 W/m2
15:00 70.1 °F /  21.2 °C 54.2 °F /  12.3 °C 29.77in /  1008hPa WSW 1mph /  1.6km/h 10mph /  16.1km/h 57% 0.00in /  0mm 149 W/m2
15:30 70.2 °F /  21.2 °C 54.3 °F /  12.4 °C 29.76in /  1007.7hPa WSW 1mph /  1.6km/h 14mph /  22.5km/h 57% 0.00in /  0mm 97 W/m2
16:04 69.7 °F /  20.9 °C 54.1 °F /  12.3 °C 29.77in /  1008hPa SSW 0.9mph /  1.4km/h 3mph /  4.8km/h 57.7% 0.00in /  0mm 46 W/m2
16:09 69.6 °F /  20.9 °C 53.8 °F /  12.1 °C 29.78in /  1008.4hPa WSW 0.6mph /  1km/h 5mph /  8km/h 57.2% 0.00in /  0mm 46 W/m2
16:14 69.4 °F /  20.8 °C 53.3 °F /  11.8 °C 29.78in /  1008.4hPa WSW 1.5mph /  2.4km/h 10mph /  16.1km/h 56.5% 0.00in /  0mm 95 W/m2
16:19 69.3 °F /  20.7 °C 53.6 °F /  12 °C 29.78in /  1008.4hPa WSW 1.5mph /  2.4km/h 10mph /  16.1km/h 57.3% 0.00in /  0mm 98 W/m2
16:24 69.2 °F /  20.7 °C 53.3 °F /  11.8 °C 29.78in /  1008.4hPa West 1.9mph /  3.1km/h 11mph /  17.7km/h 57% 0.00in /  0mm 51 W/m2
16:29 69.2 °F /  20.7 °C 53.8 °F /  12.1 °C 29.78in /  1008.4hPa WNW 0.3mph /  0.5km/h 11mph /  17.7km/h 58.1% 0.00in /  0mm 35 W/m2
16:34 69.1 °F /  20.6 °C 53.9 °F /  12.2 °C 29.78in /  1008.4hPa WNW 0.3mph /  0.5km/h 11mph /  17.7km/h 58.3% 0.00in /  0mm 39 W/m2
16:39 69 °F /  20.6 °C 53.9 °F /  12.2 °C 29.78in /  1008.4hPa WSW 1mph /  1.6km/h 11mph /  17.7km/h 58.6% 0.00in /  0mm 39 W/m2
16:44 68.9 °F /  20.5 °C 53.6 °F /  12 °C 29.79in /  1008.7hPa WSW 0.5mph /  0.8km/h 11mph /  17.7km/h 58.2% 0.00in /  0mm 35 W/m2
16:49 68.8 °F /  20.4 °C 54 °F /  12.2 °C 29.79in /  1008.7hPa West 1.2mph /  1.9km/h 12mph /  19.3km/h 59.2% 0.00in /  0mm 40 W/m2
16:54 68.7 °F /  20.4 °C 53.8 °F /  12.1 °C 29.79in /  1008.7hPa WSW 0.2mph /  0.3km/h 12mph /  19.3km/h 59% 0.00in /  0mm 44 W/m2
16:59 68.6 °F /  20.3 °C 53.9 °F /  12.2 °C 29.79in /  1008.7hPa SW 1.2mph /  1.9km/h 14mph /  22.5km/h 59.5% 0.00in /  0mm 33 W/m2
17:04 68.4 °F /  20.2 °C 53.5 °F /  11.9 °C 29.80in /  1009hPa SW 0.6mph /  1km/h 14mph /  22.5km/h 59% 0.00in /  0mm 39 W/m2
17:09 68.2 °F /  20.1 °C 53.4 °F /  11.9 °C 29.80in /  1009hPa WSW 1.5mph /  2.4km/h 9mph /  14.5km/h 59.2% 0.00in /  0mm 39 W/m2
17:14 67.8 °F /  19.9 °C 53.3 °F /  11.8 °C 29.80in /  1009hPa WSW 1.7mph /  2.7km/h 9mph /  14.5km/h 59.6% 0.00in /  0mm 37 W/m2
17:19 67.5 °F /  19.7 °C 53.4 °F /  11.9 °C 29.80in /  1009hPa WSW 0.5mph /  0.8km/h 9mph /  14.5km/h 60.6% 0.00in /  0mm 56 W/m2
17:24 67.3 °F /  19.6 °C 53.6 °F /  12 °C 29.80in /  1009hPa WSW 0.6mph /  1km/h 9mph /  14.5km/h 61.5% 0.00in /  0mm 63 W/m2
17:29 67.2 °F /  19.6 °C 53.9 °F /  12.2 °C 29.80in /  1009hPa WSW 2.2mph /  3.5km/h 9mph /  14.5km/h 62.3% 0.00in /  0mm 56 W/m2
17:34 67.2 °F /  19.6 °C 53.7 °F /  12.1 °C 29.81in /  1009.4hPa WSW 1.4mph /  2.3km/h 9mph /  14.5km/h 62% 0.00in /  0mm 35 W/m2
17:39 66.9 °F /  19.4 °C 53.5 °F /  11.9 °C 29.81in /  1009.4hPa WSW 1.5mph /  2.4km/h 11mph /  17.7km/h 61.9% 0.00in /  0mm 23 W/m2
17:44 66.7 °F /  19.3 °C 53.4 °F /  11.9 °C 29.82in /  1009.7hPa WSW 0.7mph /  1.1km/h 11mph /  17.7km/h 62.2% 0.00in /  0mm 23 W/m2
17:49 66.4 °F /  19.1 °C 53.5 °F /  11.9 °C 29.82in /  1009.7hPa West 0.4mph /  0.6km/h 11mph /  17.7km/h 63.1% 0.00in /  0mm 21 W/m2
17:54 66.2 °F /  19 °C 53.7 °F /  12.1 °C 29.82in /  1009.7hPa West 0.2mph /  0.3km/h 11mph /  17.7km/h 64% 0.00in /  0mm 21 W/m2
17:59 66 °F /  18.9 °C 54 °F /  12.2 °C 29.82in /  1009.7hPa WNW 1.1mph /  1.8km/h 11mph /  17.7km/h 65.2% 0.00in /  0mm 25 W/m2
18:04 65.7 °F /  18.7 °C 53.4 °F /  11.9 °C 29.83in /  1010hPa West 2mph /  3.2km/h 11mph /  17.7km/h 64.5% 0.00in /  0mm 14 W/m2
18:09 65.3 °F /  18.5 °C 52.7 °F /  11.5 °C 29.83in /  1010hPa West 0.8mph /  1.3km/h 11mph /  17.7km/h 63.9% 0.00in /  0mm 11 W/m2
18:14 64.9 °F /  18.3 °C 52.3 °F /  11.3 °C 29.83in /  1010hPa WSW 0.9mph /  1.4km/h 11mph /  17.7km/h 63.7% 0.00in /  0mm 9 W/m2
18:19 64.5 °F /  18.1 °C 52.1 °F /  11.2 °C 29.83in /  1010hPa WSW 0.1mph /  0.2km/h 11mph /  17.7km/h 64% 0.00in /  0mm 7 W/m2
18:24 64.2 °F /  17.9 °C 52.2 °F /  11.2 °C 29.83in /  1010hPa WSW 0.2mph /  0.3km/h 11mph /  17.7km/h 64.9% 0.00in /  0mm 7 W/m2
18:29 64 °F /  17.8 °C 52.2 °F /  11.2 °C 29.83in /  1010hPa WSW 0.1mph /  0.2km/h 11mph /  17.7km/h 65.6% 0.00in /  0mm 5 W/m2
18:34 63.7 °F /  17.6 °C 52.1 °F /  11.2 °C 29.84in /  1010.4hPa Calm   11mph /  17.7km/h 66% 0.00in /  0mm 0 W/m2
18:39 63.4 °F /  17.4 °C 51.8 °F /  11 °C 29.84in /  1010.4hPa Calm     66% 0.00in /  0mm 0 W/m2
18:44 63 °F /  17.2 °C 51.8 °F /  11 °C 29.84in /  1010.4hPa Calm   1mph /  1.6km/h 66.7% 0.00in /  0mm 0 W/m2
18:49 62.8 °F /  17.1 °C 51.7 °F /  10.9 °C 29.84in /  1010.4hPa Calm   1mph /  1.6km/h 67% 0.00in /  0mm 0 W/m2
18:54 62.5 °F /  16.9 °C 51.6 °F /  10.9 °C 29.84in /  1010.4hPa Calm   1mph /  1.6km/h 67.5% 0.00in /  0mm 0 W/m2
18:59 62.2 °F /  16.8 °C 51.6 °F /  10.9 °C 29.84in /  1010.4hPa Calm   1mph /  1.6km/h 68% 0.00in /  0mm 0 W/m2
19:04 62 °F /  16.7 °C 51.4 °F /  10.8 °C 29.84in /  1010.4hPa Calm   1mph /  1.6km/h 68.3% 0.00in /  0mm 0 W/m2
19:09 61.7 °F /  16.5 °C 51.4 °F /  10.8 °C 29.85in /  1010.7hPa Calm     69% 0.00in /  0mm 0 W/m2
19:14 61.5 °F /  16.4 °C 51.3 °F /  10.7 °C 29.85in /  1010.7hPa Calm     69.3% 0.00in /  0mm 0 W/m2
19:19 61.2 °F /  16.2 °C 51.4 °F /  10.8 °C 29.85in /  1010.7hPa Calm     70% 0.00in /  0mm 0 W/m2
19:24 61 °F /  16.1 °C 51.3 °F /  10.7 °C 29.85in /  1010.7hPa Calm     70.5% 0.00in /  0mm 0 W/m2
19:29 60.8 °F /  16 °C 51.4 °F /  10.8 °C 29.85in /  1010.7hPa Calm     71% 0.00in /  0mm 0 W/m2
19:34 60.6 °F /  15.9 °C 51.2 °F /  10.7 °C 29.85in /  1010.7hPa Calm     71% 0.00in /  0mm 0 W/m2
19:39 60.4 °F /  15.8 °C 51.2 °F /  10.7 °C 29.85in /  1010.7hPa Calm     71.7% 0.00in /  0mm 0 W/m2
19:44 60.2 °F /  15.7 °C 51.2 °F /  10.7 °C 29.85in /  1010.7hPa Calm     72% 0.00in /  0mm 0 W/m2
19:49 60 °F /  15.6 °C 51 °F /  10.6 °C 29.85in /  1010.7hPa Calm     72% 0.00in /  0mm 0 W/m2
19:53 59.9 °F /  15.5 °C 51.1 °F /  10.6 °C 29.85in /  1010.7hPa Calm     72.7% 0.00in /  0mm 0 W/m2
Hartford County Weather
Compliments of Weather Underground - 4 mb